Ben-my-chree — MXLG6 — position and weather

sailwx.info

Track history (hours):
 
Tides and Currents Weather Stations Pressure Air Temp Water Temp Dewpoint Dewpoint Depression Visibility Wind Speed Wind Dir Waves Ship Positions

Ben-my-chree

Operator: The Isle of Man Steam Packet Co Ltd

Last reported at 2017-Apr-24 22:03 UTC. Time now 2017-Apr-25 00:53 UTC.
Position N 54°02' W 002°55'.

Length 120 m; draft 5 m.

Type: Passenger vessel. MMSI: 234983000.

Date/timePositionNaut miles runAvg speedWind from/ knotsBaromVisibWave heightAir tempDewpointWater temp
2017-Apr-24 22:03N 54°02' W 002°55'615.8
2017-Apr-24 21:40N 53°58' W 003°03'318.8
2017-Apr-24 21:30N 53°57' W 003°08'918.0
2017-Apr-24 21:00N 53°55' W 003°23'3 0.5
2017-Apr-24 14:34N 53°55' W 003°29'117.0
2017-Apr-24 14:30N 53°55' W 003°27'20 5.5
2017-Apr-24 10:57N 54°02' W 002°55'715.1
2017-Apr-24 10:30N 53°58' W 003°04'917.1
2017-Apr-24 10:00N 53°56' W 003°18'917.6
2017-Apr-24 09:30N 53°56' W 003°33'33 6.6
2017-Apr-24 04:28N 54°09' W 004°25'1317.4
2017-Apr-24 03:43N 54°04' W 004°04'617.6
2017-Apr-24 03:21N 54°01' W 003°54'1517.6
2017-Apr-24 02:29N 53°56' W 003°30'1118.1
2017-Apr-24 01:52N 53°56' W 003°11'11 2.9
2017-Apr-23 21:56N 54°02' W 002°55'716.0
2017-Apr-23 21:30N 53°57' W 003°04'1018.1
2017-Apr-23 20:55N 53°55' W 003°22'818.0
2017-Apr-23 20:30N 53°57' W 003°34'918.7
2017-Apr-23 20:00N 54°00' W 003°49'22 6.1
2017-Apr-23 16:21N 54°09' W 004°24'2017.8
2017-Apr-23 15:13N 54°01' W 003°53'2517.8
2017-Apr-23 13:48N 53°56' W 003°11'2 0.7
2017-Apr-23 10:28N 53°57' W 003°07'817.3
2017-Apr-23 10:00N 53°56' W 003°20'917.5
2017-Apr-23 09:30N 53°57' W 003°35'33 6.6
2017-Apr-23 04:26N 54°09' W 004°28'2117.3
2017-Apr-23 03:14N 54°01' W 003°55'1517.6
2017-Apr-23 02:21N 53°56' W 003°30'1017.8
2017-Apr-23 01:46N 53°56' W 003°13'519.2
2017-Apr-23 01:30N 53°57' W 003°04'7 2.2
2017-Apr-22 22:24N 54°02' W 002°55'614.6
2017-Apr-22 21:58N 53°58' W 003°04'817.2
2017-Apr-22 21:30N 53°56' W 003°17'917.4
2017-Apr-22 21:01N 53°56' W 003°31'918.2
2017-Apr-22 20:30N 53°59' W 003°46'23 5.7
2017-Apr-22 16:22N 54°08' W 004°23'1818.0
2017-Apr-22 15:21N 54°01' W 003°54'1617.9
2017-Apr-22 14:29N 53°55' W 003°29'14 3.5
2017-Apr-22 10:31N 53°57' W 003°06'117.0
2017-Apr-22 10:27N 53°57' W 003°07'716.8
2017-Apr-22 10:01N 53°56' W 003°20'917.0
2017-Apr-22 09:30N 53°57' W 003°34'33 6.9
2017-Apr-22 04:40N 54°09' W 004°27'617.0
2017-Apr-22 04:20N 54°07' W 004°18'1517.0
2017-Apr-22 03:27N 54°01' W 003°54'1616.7
2017-Apr-22 02:30N 53°56' W 003°29'1117.0
2017-Apr-22 01:51N 53°56' W 003°11'4 1.0
2017-Apr-21 21:47N 53°57' W 003°04'517.2
2017-Apr-21 21:30N 53°56' W 003°11'917.3
2017-Apr-21 21:00N 53°55' W 003°26'1017.3
2017-Apr-21 20:27N 53°58' W 003°41'29 8.0
2017-Apr-21 16:52N 54°09' W 004°27'616.9
2017-Apr-21 16:29N 54°07' W 004°17'917.4
2017-Apr-21 16:00N 54°04' W 004°03'1817.4
2017-Apr-21 14:58N 53°57' W 003°35'1317.1
2017-Apr-21 14:11N 53°56' W 003°12'12 3.9
2017-Apr-21 11:09N 54°02' W 002°55'714.7
2017-Apr-21 10:41N 53°57' W 003°04'317.0
2017-Apr-21 10:30N 53°56' W 003°09'917.2
2017-Apr-21 10:00N 53°55' W 003°23'917.3
2017-Apr-21 09:30N 53°58' W 003°37'917.7
2017-Apr-21 08:59N 54°00' W 003°52'817.7
2017-Apr-21 08:30N 54°03' W 004°06'14 3.5
2017-Apr-21 04:37N 54°09' W 004°27'217.0
2017-Apr-21 04:29N 54°08' W 004°23'1217.2
2017-Apr-21 03:46N 54°03' W 004°04'1616.8
2017-Apr-21 02:47N 53°58' W 003°38'516.9
2017-Apr-21 02:28N 53°56' W 003°29'1017.1
2017-Apr-21 01:54N 53°56' W 003°13'717.7
2017-Apr-21 01:30N 53°58' W 003°02'5 5.0
2017-Apr-21 00:26N 54°02' W 002°55'0 0.0
2017-Apr-20 22:10N 54°02' W 002°55'2 7.4
2017-Apr-20 21:58N 54°01' W 002°57'816.7
2017-Apr-20 21:30N 53°56' W 003°08'917.2
2017-Apr-20 21:00N 53°55' W 003°22'917.3
2017-Apr-20 20:30N 53°57' W 003°36'32 8.4
2017-Apr-20 16:39N 54°09' W 004°27'716.6
2017-Apr-20 16:13N 54°06' W 004°16'817.7
2017-Apr-20 15:47N 54°03' W 004°04'617.3
2017-Apr-20 15:27N 54°01' W 003°55'1617.4
2017-Apr-20 14:31N 53°56' W 003°29'017.3
2017-Apr-20 14:30N 53°56' W 003°29'1717.0
2017-Apr-20 13:30N 53°59' W 003°00'4 1.5
2017-Apr-20 10:59N 54°02' W 002°55'815.5
2017-Apr-20 10:30N 53°57' W 003°05'917.5
2017-Apr-20 10:00N 53°55' W 003°20'917.6
2017-Apr-20 09:30N 53°57' W 003°35'917.9
2017-Apr-20 09:01N 53°60' W 003°49'25 6.0
2017-Apr-20 04:56N 54°09' W 004°27'2217.4
2017-Apr-20 03:41N 54°01' W 003°53'1117.4
2017-Apr-20 03:04N 53°57' W 003°36'417.3
2017-Apr-20 02:51N 53°56' W 003°30'1117.0
2017-Apr-20 02:13N 53°56' W 003°12'417.0
2017-Apr-20 01:59N 53°57' W 003°05'8 2.0
2017-Apr-19 22:10N 54°02' W 002°55'615.1
2017-Apr-19 21:45N 53°58' W 003°04'417.5
2017-Apr-19 21:30N 53°56' W 003°10'918.0
2017-Apr-19 21:00N 53°55' W 003°25'917.8
2017-Apr-19 20:30N 53°58' W 003°39'1018.0
2017-Apr-19 19:57N 54°01' W 003°55'13 3.6
2017-Apr-19 16:20N 54°06' W 004°16'717.7
2017-Apr-19 15:56N 54°04' W 004°04'2217.5
2017-Apr-19 14:42N 53°56' W 003°30'717.3
2017-Apr-19 14:16N 53°56' W 003°18'11 3.1
2017-Apr-19 10:49N 53°59' W 003°00'517.7
2017-Apr-19 10:30N 53°56' W 003°08'917.8
2017-Apr-19 10:00N 53°56' W 003°23'917.8
2017-Apr-19 09:30N 53°58' W 003°37'1217.9
2017-Apr-19 08:50N 54°02' W 003°56'817.7
2017-Apr-19 08:25N 54°04' W 004°08'13 4.6
2017-Apr-19 05:41N 54°09' W 004°28'3711.6
2017-Apr-19 02:30N 53°56' W 003°29'1017.2
2017-Apr-19 01:56N 53°56' W 003°13'12 3.1
2017-Apr-18 22:06N 54°02' W 002°55'413.9
2017-Apr-18 21:49N 53°59' W 003°00'517.5
2017-Apr-18 21:30N 53°56' W 003°08'917.7
2017-Apr-18 21:00N 53°55' W 003°23'917.6
2017-Apr-18 20:30N 53°58' W 003°37'917.7
2017-Apr-18 20:00N 54°01' W 003°51'917.6
2017-Apr-18 19:30N 54°04' W 004°05'13 5.0
2017-Apr-18 16:51N 54°09' W 004°26'2118.2
2017-Apr-18 15:43N 54°01' W 003°54'1617.9
2017-Apr-18 14:50N 53°56' W 003°29'1017.5
2017-Apr-18 14:16N 53°56' W 003°12'5 1.4
2017-Apr-18 10:37N 53°58' W 003°04'218.1
2017-Apr-18 10:30N 53°57' W 003°07'918.0
2017-Apr-18 10:00N 53°56' W 003°22'917.6
2017-Apr-18 09:30N 53°57' W 003°37'11 1.8
2017-Apr-18 03:19N 54°02' W 003°55'1718.3
2017-Apr-18 02:24N 53°56' W 003°28'1018.0
2017-Apr-18 01:51N 53°56' W 003°12'616.7
2017-Apr-18 01:30N 53°58' W 003°03'6 1.6
2017-Apr-17 21:57N 54°02' W 002°55'715.6
2017-Apr-17 21:30N 53°57' W 003°05'917.5
2017-Apr-17 21:00N 53°55' W 003°19'918.0
2017-Apr-17 20:30N 53°57' W 003°34'918.1
2017-Apr-17 20:00N 54°00' W 003°49'12 2.3
2017-Apr-17 14:40N 53°56' W 003°30'1017.7
2017-Apr-17 14:06N 53°56' W 003°12'12 3.9
2017-Apr-17 11:07N 54°02' W 002°56'716.9
2017-Apr-17 10:42N 53°57' W 003°04'418.2
2017-Apr-17 10:30N 53°56' W 003°10'918.5
2017-Apr-17 10:00N 53°56' W 003°26'917.5
2017-Apr-17 09:30N 53°58' W 003°40'7 1.0
2017-Apr-17 02:27N 53°56' W 003°29'818.2
2017-Apr-17 02:00N 53°56' W 003°15'13 3.2
2017-Apr-16 22:00N 54°02' W 002°56'816.3
2017-Apr-16 21:30N 53°57' W 003°06'918.2
2017-Apr-16 20:59N 53°55' W 003°21'917.8
2017-Apr-16 20:30N 53°57' W 003°36'15 3.2
2017-Apr-16 15:43N 54°03' W 004°00'418.3
2017-Apr-16 15:29N 54°01' W 003°54'1617.7
2017-Apr-16 14:36N 53°56' W 003°29'917.4
2017-Apr-16 14:03N 53°56' W 003°12'5 1.5
2017-Apr-16 10:40N 53°57' W 003°04'319.5
2017-Apr-16 10:30N 53°56' W 003°09'1019.0
2017-Apr-16 09:59N 53°56' W 003°26'39 2.2
2017-Apr-15 16:41N 54°09' W 004°28'716.8
2017-Apr-15 16:17N 54°06' W 004°17'1418.1
2017-Apr-15 15:29N 54°01' W 003°54'1617.7
2017-Apr-15 14:35N 53°56' W 003°29'1016.8
2017-Apr-15 14:00N 53°55' W 003°12'3 0.8
2017-Apr-15 10:19N 53°56' W 003°08'619.3
2017-Apr-15 10:00N 53°55' W 003°18'918.7
2017-Apr-15 09:30N 53°56' W 003°34'34 6.7
2017-Apr-15 04:24N 54°09' W 004°28'2117.7
2017-Apr-15 03:13N 54°01' W 003°55'1717.9
2017-Apr-15 02:16N 53°56' W 003°27'917.8
2017-Apr-15 01:47N 53°56' W 003°13'517.2
2017-Apr-15 01:30N 53°57' W 003°05'  
Track history (hours):
 
Tides and Currents Weather Stations Pressure Air Temp Water Temp Dewpoint Dewpoint Depression Visibility Wind Speed Wind Dir Waves Ship Positions

Ben-my-chree

Operator: The Isle of Man Steam Packet Co Ltd

Last reported at 2017-Apr-24 22:03 UTC. Time now 2017-Apr-25 00:53 UTC.
Position N 54°02' W 002°55'.

Length 120 m; draft 5 m.

Type: Passenger vessel. MMSI: 234983000.

Date/timePositionNaut miles runAvg speedWind from/ knotsBaromVisibWave heightAir tempDewpointWater temp
2017-Apr-24 22:03N 54°02' W 002°55'615.8
2017-Apr-24 21:40N 53°58' W 003°03'318.8
2017-Apr-24 21:30N 53°57' W 003°08'918.0
2017-Apr-24 21:00N 53°55' W 003°23'3 0.5
2017-Apr-24 14:34N 53°55' W 003°29'117.0
2017-Apr-24 14:30N 53°55' W 003°27'20 5.5
2017-Apr-24 10:57N 54°02' W 002°55'715.1
2017-Apr-24 10:30N 53°58' W 003°04'917.1
2017-Apr-24 10:00N 53°56' W 003°18'917.6
2017-Apr-24 09:30N 53°56' W 003°33'33 6.6
2017-Apr-24 04:28N 54°09' W 004°25'1317.4
2017-Apr-24 03:43N 54°04' W 004°04'617.6
2017-Apr-24 03:21N 54°01' W 003°54'1517.6
2017-Apr-24 02:29N 53°56' W 003°30'1118.1
2017-Apr-24 01:52N 53°56' W 003°11'11 2.9
2017-Apr-23 21:56N 54°02' W 002°55'716.0
2017-Apr-23 21:30N 53°57' W 003°04'1018.1
2017-Apr-23 20:55N 53°55' W 003°22'818.0
2017-Apr-23 20:30N 53°57' W 003°34'918.7
2017-Apr-23 20:00N 54°00' W 003°49'22 6.1
2017-Apr-23 16:21N 54°09' W 004°24'2017.8
2017-Apr-23 15:13N 54°01' W 003°53'2517.8
2017-Apr-23 13:48N 53°56' W 003°11'2 0.7
2017-Apr-23 10:28N 53°57' W 003°07'817.3
2017-Apr-23 10:00N 53°56' W 003°20'917.5
2017-Apr-23 09:30N 53°57' W 003°35'33 6.6
2017-Apr-23 04:26N 54°09' W 004°28'2117.3
2017-Apr-23 03:14N 54°01' W 003°55'1517.6
2017-Apr-23 02:21N 53°56' W 003°30'1017.8
2017-Apr-23 01:46N 53°56' W 003°13'519.2
2017-Apr-23 01:30N 53°57' W 003°04'7 2.2
2017-Apr-22 22:24N 54°02' W 002°55'614.6
2017-Apr-22 21:58N 53°58' W 003°04'817.2
2017-Apr-22 21:30N 53°56' W 003°17'917.4
2017-Apr-22 21:01N 53°56' W 003°31'918.2
2017-Apr-22 20:30N 53°59' W 003°46'23 5.7
2017-Apr-22 16:22N 54°08' W 004°23'1818.0
2017-Apr-22 15:21N 54°01' W 003°54'1617.9
2017-Apr-22 14:29N 53°55' W 003°29'14 3.5
2017-Apr-22 10:31N 53°57' W 003°06'117.0
2017-Apr-22 10:27N 53°57' W 003°07'716.8
2017-Apr-22 10:01N 53°56' W 003°20'917.0
2017-Apr-22 09:30N 53°57' W 003°34'33 6.9
2017-Apr-22 04:40N 54°09' W 004°27'617.0
2017-Apr-22 04:20N 54°07' W 004°18'1517.0
2017-Apr-22 03:27N 54°01' W 003°54'1616.7
2017-Apr-22 02:30N 53°56' W 003°29'1117.0
2017-Apr-22 01:51N 53°56' W 003°11'4 1.0
2017-Apr-21 21:47N 53°57' W 003°04'517.2
2017-Apr-21 21:30N 53°56' W 003°11'917.3
2017-Apr-21 21:00N 53°55' W 003°26'1017.3
2017-Apr-21 20:27N 53°58' W 003°41'29 8.0
2017-Apr-21 16:52N 54°09' W 004°27'616.9
2017-Apr-21 16:29N 54°07' W 004°17'917.4
2017-Apr-21 16:00N 54°04' W 004°03'1817.4
2017-Apr-21 14:58N 53°57' W 003°35'1317.1
2017-Apr-21 14:11N 53°56' W 003°12'12 3.9
2017-Apr-21 11:09N 54°02' W 002°55'714.7
2017-Apr-21 10:41N 53°57' W 003°04'317.0
2017-Apr-21 10:30N 53°56' W 003°09'917.2
2017-Apr-21 10:00N 53°55' W 003°23'917.3
2017-Apr-21 09:30N 53°58' W 003°37'917.7
2017-Apr-21 08:59N 54°00' W 003°52'817.7
2017-Apr-21 08:30N 54°03' W 004°06'14 3.5
2017-Apr-21 04:37N 54°09' W 004°27'217.0
2017-Apr-21 04:29N 54°08' W 004°23'1217.2
2017-Apr-21 03:46N 54°03' W 004°04'1616.8
2017-Apr-21 02:47N 53°58' W 003°38'516.9
2017-Apr-21 02:28N 53°56' W 003°29'1017.1
2017-Apr-21 01:54N 53°56' W 003°13'717.7
2017-Apr-21 01:30N 53°58' W 003°02'5 5.0
2017-Apr-21 00:26N 54°02' W 002°55'0 0.0
2017-Apr-20 22:10N 54°02' W 002°55'2 7.4
2017-Apr-20 21:58N 54°01' W 002°57'816.7
2017-Apr-20 21:30N 53°56' W 003°08'917.2
2017-Apr-20 21:00N 53°55' W 003°22'917.3
2017-Apr-20 20:30N 53°57' W 003°36'32 8.4
2017-Apr-20 16:39N 54°09' W 004°27'716.6
2017-Apr-20 16:13N 54°06' W 004°16'817.7
2017-Apr-20 15:47N 54°03' W 004°04'617.3
2017-Apr-20 15:27N 54°01' W 003°55'1617.4
2017-Apr-20 14:31N 53°56' W 003°29'017.3
2017-Apr-20 14:30N 53°56' W 003°29'1717.0
2017-Apr-20 13:30N 53°59' W 003°00'4 1.5
2017-Apr-20 10:59N 54°02' W 002°55'815.5
2017-Apr-20 10:30N 53°57' W 003°05'917.5
2017-Apr-20 10:00N 53°55' W 003°20'917.6
2017-Apr-20 09:30N 53°57' W 003°35'917.9
2017-Apr-20 09:01N 53°60' W 003°49'25 6.0
2017-Apr-20 04:56N 54°09' W 004°27'2217.4
2017-Apr-20 03:41N 54°01' W 003°53'1117.4
2017-Apr-20 03:04N 53°57' W 003°36'417.3
2017-Apr-20 02:51N 53°56' W 003°30'1117.0
2017-Apr-20 02:13N 53°56' W 003°12'417.0
2017-Apr-20 01:59N 53°57' W 003°05'8 2.0
2017-Apr-19 22:10N 54°02' W 002°55'615.1
2017-Apr-19 21:45N 53°58' W 003°04'417.5
2017-Apr-19 21:30N 53°56' W 003°10'918.0
2017-Apr-19 21:00N 53°55' W 003°25'917.8
2017-Apr-19 20:30N 53°58' W 003°39'1018.0
2017-Apr-19 19:57N 54°01' W 003°55'13 3.6
2017-Apr-19 16:20N 54°06' W 004°16'717.7
2017-Apr-19 15:56N 54°04' W 004°04'2217.5
2017-Apr-19 14:42N 53°56' W 003°30'717.3
2017-Apr-19 14:16N 53°56' W 003°18'11 3.1
2017-Apr-19 10:49N 53°59' W 003°00'517.7
2017-Apr-19 10:30N 53°56' W 003°08'917.8
2017-Apr-19 10:00N 53°56' W 003°23'917.8
2017-Apr-19 09:30N 53°58' W 003°37'1217.9
2017-Apr-19 08:50N 54°02' W 003°56'817.7
2017-Apr-19 08:25N 54°04' W 004°08'13 4.6
2017-Apr-19 05:41N 54°09' W 004°28'3711.6
2017-Apr-19 02:30N 53°56' W 003°29'1017.2
2017-Apr-19 01:56N 53°56' W 003°13'12 3.1
2017-Apr-18 22:06N 54°02' W 002°55'413.9
2017-Apr-18 21:49N 53°59' W 003°00'517.5
2017-Apr-18 21:30N 53°56' W 003°08'917.7
2017-Apr-18 21:00N 53°55' W 003°23'917.6
2017-Apr-18 20:30N 53°58' W 003°37'917.7
2017-Apr-18 20:00N 54°01' W 003°51'917.6
2017-Apr-18 19:30N 54°04' W 004°05'13 5.0
2017-Apr-18 16:51N 54°09' W 004°26'2118.2
2017-Apr-18 15:43N 54°01' W 003°54'1617.9
2017-Apr-18 14:50N 53°56' W 003°29'1017.5
2017-Apr-18 14:16N 53°56' W 003°12'5 1.4
2017-Apr-18 10:37N 53°58' W 003°04'218.1
2017-Apr-18 10:30N 53°57' W 003°07'918.0
2017-Apr-18 10:00N 53°56' W 003°22'917.6
2017-Apr-18 09:30N 53°57' W 003°37'11 1.8
2017-Apr-18 03:19N 54°02' W 003°55'1718.3
2017-Apr-18 02:24N 53°56' W 003°28'1018.0
2017-Apr-18 01:51N 53°56' W 003°12'616.7
2017-Apr-18 01:30N 53°58' W 003°03'6 1.6
2017-Apr-17 21:57N 54°02' W 002°55'715.6
2017-Apr-17 21:30N 53°57' W 003°05'917.5
2017-Apr-17 21:00N 53°55' W 003°19'918.0
2017-Apr-17 20:30N 53°57' W 003°34'918.1
2017-Apr-17 20:00N 54°00' W 003°49'12 2.3
2017-Apr-17 14:40N 53°56' W 003°30'1017.7
2017-Apr-17 14:06N 53°56' W 003°12'12 3.9
2017-Apr-17 11:07N 54°02' W 002°56'716.9
2017-Apr-17 10:42N 53°57' W 003°04'418.2
2017-Apr-17 10:30N 53°56' W 003°10'918.5
2017-Apr-17 10:00N 53°56' W 003°26'917.5
2017-Apr-17 09:30N 53°58' W 003°40'7 1.0
2017-Apr-17 02:27N 53°56' W 003°29'818.2
2017-Apr-17 02:00N 53°56' W 003°15'13 3.2
2017-Apr-16 22:00N 54°02' W 002°56'816.3
2017-Apr-16 21:30N 53°57' W 003°06'918.2
2017-Apr-16 20:59N 53°55' W 003°21'917.8
2017-Apr-16 20:30N 53°57' W 003°36'15 3.2
2017-Apr-16 15:43N 54°03' W 004°00'418.3
2017-Apr-16 15:29N 54°01' W 003°54'1617.7
2017-Apr-16 14:36N 53°56' W 003°29'917.4
2017-Apr-16 14:03N 53°56' W 003°12'5 1.5
2017-Apr-16 10:40N 53°57' W 003°04'319.5
2017-Apr-16 10:30N 53°56' W 003°09'1019.0
2017-Apr-16 09:59N 53°56' W 003°26'39 2.2
2017-Apr-15 16:41N 54°09' W 004°28'716.8
2017-Apr-15 16:17N 54°06' W 004°17'1418.1
2017-Apr-15 15:29N 54°01' W 003°54'1617.7
2017-Apr-15 14:35N 53°56' W 003°29'1016.8
2017-Apr-15 14:00N 53°55' W 003°12'3 0.8
2017-Apr-15 10:19N 53°56' W 003°08'619.3
2017-Apr-15 10:00N 53°55' W 003°18'918.7
2017-Apr-15 09:30N 53°56' W 003°34'34 6.7
2017-Apr-15 04:24N 54°09' W 004°28'2117.7
2017-Apr-15 03:13N 54°01' W 003°55'1717.9
2017-Apr-15 02:16N 53°56' W 003°27'917.8
2017-Apr-15 01:47N 53°56' W 003°13'517.2
2017-Apr-15 01:30N 53°57' W 003°05'  

Dump ship's entire track history